Terminal Aerodrome Forecast
Issued by NWS

Home | Current Version | Previous Version | Text Only | Print | Product List | Glossary On
Versions: 1 2 3 4 5 6 7 8 9 10 11 12 13 14 15 16 17 18 19 20 21 22 23 24 25 26 27
001
FTUS41 KPBZ 282323
TAFLBE
TAF
KLBE 282323Z 2900/2924 20010KT P6SM SCT035
      TEMPO 2900/2902 12010KT 4SM -SHRA BKN025
     FM290600 20007KT 3SM -SHRA VCTS OVC025CB
     FM291000 23008KT 3SM BR VCSH BKN008
     FM291500 25010KT P6SM BKN035=

USA.gov is the U.S. government's official web portal to all federal, state and local government web resources and services.